Time;durP1;ratioP1;P1;durP2;ratioP2;P2;SDS_P1;SDS_P2;PMS_P1;PMS_P2;Temp;Humidity;BMP_temperature;BMP_pressure;BME280_temperature;BME280_humidity;BME280_pressure;Samples;Min_cycle;Max_cycle;Signal;HPM_P1;HPM_P2
2022/12/16 00:02:13;;;;;;;0.00;0.00;;;;;;;-0.12;67.94;101155.56;7361063;19;20826;-58
2022/12/16 00:04:38;;;;;;;0.08;0.08;;;;;;;-0.39;68.25;101118.03;7358482;19;20006;-59
2022/12/16 00:07:03;;;;;;;0.10;0.10;;;;;;;0.00;68.06;101186.72;7358214;19;20006;-59
2022/12/16 00:09:29;;;;;;;0.10;0.10;;;;;;;-0.01;67.95;101187.53;7357244;19;20085;-58
2022/12/16 00:11:54;;;;;;;0.10;0.10;;;;;;;-0.02;68.20;101181.50;7360626;19;20820;-59
2022/12/16 00:14:20;;;;;;;0.03;0.03;;;;;;;-0.10;68.33;101166.72;7363358;19;20011;-59
2022/12/16 00:16:45;;;;;;;0.10;0.10;;;;;;;-0.15;68.10;101158.91;7357345;19;20907;-59
2022/12/16 00:19:11;;;;;;;0.10;0.10;;;;;;;-0.01;68.35;101192.66;7359181;19;20021;-59
2022/12/16 00:21:36;;;;;;;0.10;0.10;;;;;;;-0.03;68.51;101189.19;7357913;19;20017;-59
2022/12/16 00:24:02;;;;;;;0.10;0.10;;;;;;;-0.02;68.60;101188.34;7362783;19;20014;-60
2022/12/16 00:26:30;;;;;;;0.00;0.00;;;;;;;-0.14;68.40;101167.50;7352696;19;20025;-59
2022/12/16 00:28:56;;;;;;;0.10;0.10;;;;;;;-0.03;68.55;101184.06;7360003;19;20017;-59
2022/12/16 00:31:22;;;;;;;0.10;0.10;;;;;;;-0.04;68.68;101184.88;7360604;19;20017;-59
2022/12/16 00:33:47;;;;;;;0.00;0.00;;;;;;;-0.05;68.47;101181.44;7362416;19;20014;-59
2022/12/16 00:36:13;;;;;;;0.10;0.10;;;;;;;-0.06;68.17;101181.38;7360144;19;20007;-60
2022/12/16 00:38:38;;;;;;;0.00;0.00;;;;;;;-0.09;68.51;101160.78;7356188;19;20018;-58
2022/12/16 00:41:04;;;;;;;0.10;0.10;;;;;;;-0.18;68.84;101152.81;7361691;19;20114;-58
2022/12/16 00:43:29;;;;;;;0.10;0.10;;;;;;;-0.06;68.29;101168.56;7359120;19;20019;-59
2022/12/16 00:45:54;;;;;;;0.10;0.10;;;;;;;-0.10;68.52;101164.16;7361384;19;20482;-59
2022/12/16 00:48:23;;;;;;;0.00;0.00;;;;;;;-0.15;68.89;101147.75;7360339;19;20010;-60
2022/12/16 00:50:50;;;;;;;0.00;0.00;;;;;;;0.01;68.36;101170.47;7360768;19;20482;-59
2022/12/16 00:53:16;;;;;;;0.10;0.10;;;;;;;-0.01;68.31;101177.25;7361033;19;20040;-58
2022/12/16 00:55:42;;;;;;;0.00;0.00;;;;;;;0.03;68.90;101181.66;7357747;19;20010;-58
2022/12/16 00:58:08;;;;;;;0.10;0.10;;;;;;;0.00;68.90;101184.16;7346411;19;20011;-61
2022/12/16 01:00:33;;;;;;;0.08;0.08;;;;;;;0.02;68.46;101172.22;7344311;19;20025;-57
2022/12/16 01:02:59;;;;;;;0.00;0.00;;;;;;;0.06;68.47;101184.31;7351177;19;20014;-57
2022/12/16 01:05:25;;;;;;;0.10;0.10;;;;;;;0.06;68.41;101180.88;7354269;19;20026;-59
2022/12/16 01:07:52;;;;;;;0.10;0.10;;;;;;;0.01;68.34;101180.75;7351808;19;20085;-56
2022/12/16 01:10:18;;;;;;;0.00;0.00;;;;;;;-0.12;69.00;101152.97;7351778;19;20007;-58
2022/12/16 01:12:44;;;;;;;0.00;0.00;;;;;;;0.03;68.77;101180.78;7350835;19;20007;-59
2022/12/16 01:15:11;;;;;;;0.10;0.10;;;;;;;-0.01;68.97;101177.25;7334219;19;20025;-57
2022/12/16 01:17:37;;;;;;;0.10;0.10;;;;;;;-0.03;68.80;101173.78;7328931;19;20034;-58
2022/12/16 01:20:03;;;;;;;0.00;0.00;;;;;;;-0.02;68.85;101173.81;7324116;19;20011;-58
2022/12/16 01:22:31;;;;;;;0.00;0.00;;;;;;;0.07;68.64;101188.63;7349354;19;20466;-58
2022/12/16 01:24:57;;;;;;;0.10;0.10;;;;;;;0.02;68.73;101172.22;7346025;19;20038;-58
2022/12/16 01:27:23;;;;;;;0.10;0.10;;;;;;;-0.09;68.84;101163.34;7347541;19;20013;-59
2022/12/16 01:29:49;;;;;;;0.10;0.10;;;;;;;-0.02;68.54;101178.09;7351641;19;20007;-58
2022/12/16 01:32:14;;;;;;;0.10;0.10;;;;;;;0.06;68.52;101188.59;7360093;19;20107;-58
2022/12/16 01:34:40;;;;;;;0.03;0.03;;;;;;;-0.02;68.79;101170.38;7353978;19;20030;-58
2022/12/16 01:37:11;;;;;;;0.10;0.10;;;;;;;0.01;68.65;101169.63;7363415;19;20003;-58
2022/12/16 01:39:36;;;;;;;0.08;0.08;;;;;;;-0.03;68.98;101173.78;7360476;19;20402;-58
2022/12/16 01:42:02;;;;;;;0.10;0.10;;;;;;;0.03;68.85;101185.91;7363893;19;20014;-59
2022/12/16 01:44:27;;;;;;;0.08;0.08;;;;;;;-0.18;68.47;101151.13;7363668;19;20109;-57
2022/12/16 01:47:00;;;;;;;0.00;0.00;;;;;;;-0.08;69.09;101170.22;7363177;19;20021;-58
2022/12/16 01:49:33;;;;;;;0.05;0.05;;;;;;;-0.06;68.89;101169.41;7359884;19;20018;-58
2022/12/16 01:52:03;;;;;;;0.10;0.10;;;;;;;0.04;68.85;101190.22;7361528;19;20410;-58
2022/12/16 01:54:36;;;;;;;0.10;0.10;;;;;;;0.02;69.24;101192.75;7363195;19;20017;-58
2022/12/16 01:57:05;;;;;;;0.10;0.10;;;;;;;-0.01;69.12;101187.53;7360533;19;20007;-58
2022/12/16 01:59:34;;;;;;;0.10;0.10;;;;;;;0.04;69.15;101196.22;7361893;19;20535;-58
2022/12/16 02:02:01;;;;;;;0.00;0.00;;;;;;;-0.02;69.17;101190.91;7360297;19;20020;-56
2022/12/16 02:04:27;;;;;;;0.00;0.00;;;;;;;-0.08;69.34;101170.22;7363076;19;20009;-57
2022/12/16 02:06:52;;;;;;;0.00;0.00;;;;;;;-0.02;68.92;101185.78;7360295;19;20417;-57
2022/12/16 02:09:18;;;;;;;0.00;0.00;;;;;;;-0.02;68.95;101185.78;7362652;19;20003;-57
2022/12/16 02:11:55;;;;;;;0.08;0.08;;;;;;;0.05;69.13;101195.41;7361315;19;21192;-57
2022/12/16 02:14:30;;;;;;;0.03;0.03;;;;;;;0.09;69.34;101191.22;7363196;19;20014;-57
2022/12/16 02:17:26;;;;;;;0.10;0.10;;;;;;;-0.07;69.18;101162.56;7360244;19;20475;-58
2022/12/16 02:20:10;;;;;;;0.10;0.10;;;;;;;0.08;68.99;101192.91;7258214;19;2004267;-57
2022/12/16 02:22:51;;;;;;;0.10;0.10;;;;;;;0.09;69.12;101199.78;7359967;19;20532;-58
2022/12/16 02:25:38;;;;;;;0.10;0.10;;;;;;;0.11;69.36;101192.16;7360400;19;20085;-57
2022/12/16 02:28:10;;;;;;;0.10;0.10;;;;;;;-0.07;69.16;101169.38;7359793;19;20539;-57
2022/12/16 02:30:51;;;;;;;0.00;0.00;;;;;;;0.11;69.10;101195.59;7363444;19;20458;-58
2022/12/16 02:33:29;;;;;;;0.00;0.00;;;;;;;0.10;69.42;101195.50;7360174;19;20011;-57
2022/12/16 02:36:29;;;;;;;0.10;0.10;;;;;;;0.11;69.12;101187.88;7362364;19;20726;-58
2022/12/16 02:39:19;;;;;;;0.10;0.10;;;;;;;0.11;68.93;101181.88;7259169;19;2004249;-57
2022/12/16 02:41:58;;;;;;;0.03;0.03;;;;;;;0.10;68.99;101188.72;7356735;19;20808;-57
2022/12/16 02:45:06;;;;;;;0.10;0.10;;;;;;;0.09;69.10;101184.38;7363665;19;20379;-58
2022/12/16 02:47:32;;;;;;;0.00;0.00;;;;;;;0.03;69.02;101189.34;7259084;19;2004350;-56
2022/12/16 02:49:59;;;;;;;0.08;0.08;;;;;;;-0.07;69.16;101169.38;7361006;19;20030;-58
2022/12/16 02:52:28;;;;;;;0.10;0.10;;;;;;;0.05;69.35;101182.59;7359960;19;20007;-55
2022/12/16 02:54:58;;;;;;;0.10;0.10;;;;;;;0.06;69.29;101199.72;7357584;19;20340;-58
2022/12/16 02:57:45;;;;;;;0.00;0.00;;;;;;;0.06;69.29;101189.44;7357059;19;20867;-56
2022/12/16 03:00:20;;;;;;;0.20;0.20;;;;;;;0.03;69.11;101184.22;7358929;19;20019;-59
2022/12/16 03:02:46;;;;;;;0.00;0.00;;;;;;;0.04;68.94;101185.09;7358418;19;20018;-58
2022/12/16 03:05:19;;;;;;;0.00;0.00;;;;;;;0.03;68.86;101176.50;7357392;19;20511;-58
2022/12/16 03:07:47;;;;;;;0.00;0.00;;;;;;;-0.02;69.10;101172.94;7360783;19;20014;-58
2022/12/16 03:10:17;;;;;;;0.10;0.10;;;;;;;0.01;68.98;101180.75;7361493;19;20856;-57
2022/12/16 03:12:44;;;;;;;0.10;0.10;;;;;;;0.02;69.06;101179.91;7362042;19;20018;-58
2022/12/16 03:15:14;;;;;;;0.10;0.10;;;;;;;-0.18;69.19;101146.00;7356207;19;20035;-59
2022/12/16 03:17:41;;;;;;;0.00;0.00;;;;;;;-0.06;69.57;101163.41;7364425;19;20016;-58
2022/12/16 03:20:13;;;;;;;0.10;0.10;;;;;;;-0.19;69.37;101145.97;7357086;19;20022;-56
2022/12/16 03:22:41;;;;;;;0.00;0.00;;;;;;;-0.09;69.55;101153.09;7358711;19;20869;-57
2022/12/16 03:25:08;;;;;;;0.00;0.00;;;;;;;-0.02;69.51;101170.38;7362349;19;20013;-58
2022/12/16 03:27:50;;;;;;;0.00;0.00;;;;;;;0.00;70.01;101166.19;7359982;19;20015;-58
2022/12/16 03:30:21;;;;;;;0.10;0.10;;;;;;;-0.01;69.84;101167.84;7362506;19;20007;-58
2022/12/16 03:33:10;;;;;;;0.00;0.00;;;;;;;-0.08;69.23;101150.53;7359069;19;20625;-58
2022/12/16 03:35:50;;;;;;;0.00;0.00;;;;;;;-0.02;69.78;101154.97;7359838;19;20013;-57
2022/12/16 03:38:20;;;;;;;0.10;0.10;;;;;;;-0.09;69.89;101142.81;7360249;19;20481;-58
2022/12/16 03:40:47;;;;;;;0.10;0.10;;;;;;;0.04;69.87;101170.53;7361588;19;20044;-59
2022/12/16 03:43:14;;;;;;;0.10;0.10;;;;;;;0.06;69.68;101174.03;7358634;19;21452;-59
2022/12/16 03:45:42;;;;;;;0.00;0.00;;;;;;;0.07;69.36;101162.06;7352863;19;20006;-59
2022/12/16 03:48:09;;;;;;;0.10;0.10;;;;;;;0.03;69.53;101153.41;7361205;19;20106;-58
2022/12/16 03:50:36;;;;;;;0.10;0.10;;;;;;;0.07;69.59;101159.50;7359651;19;20357;-57
2022/12/16 03:53:02;;;;;;;0.10;0.10;;;;;;;0.11;69.53;101162.19;7354430;19;20037;-58
2022/12/16 03:55:28;;;;;;;0.10;0.10;;;;;;;0.08;69.62;101156.97;7360361;19;20165;-58
2022/12/16 03:57:54;;;;;;;0.00;0.00;;;;;;;0.08;69.52;101154.41;7357569;19;20113;-58
2022/12/16 04:00:20;;;;;;;0.00;0.00;;;;;;;0.10;69.58;101152.75;7360377;19;21421;-58
2022/12/16 04:02:46;;;;;;;0.10;0.10;;;;;;;0.12;69.95;101157.94;7359544;19;20090;-58
2022/12/16 04:05:12;;;;;;;0.00;0.00;;;;;;;0.11;69.48;101151.06;7343886;19;20481;-58
2022/12/16 04:07:37;;;;;;;0.10;0.10;;;;;;;0.09;69.39;101148.44;7358310;19;20014;-58
2022/12/16 04:10:04;;;;;;;0.00;0.00;;;;;;;0.06;69.57;101135.53;7356736;19;20577;-58
2022/12/16 04:27:23;;;;;;;0.10;0.10;;;;;;;-0.04;70.06;101125.84;7259971;19;2004482;-59
2022/12/16 04:29:22;;;;;;;0.10;0.10;;;;;;;-0.05;69.42;101121.50;7362534;19;20022;-57
2022/12/16 04:31:48;;;;;;;0.10;0.10;;;;;;;0.03;69.42;101132.88;7359591;19;22829;-58
2022/12/16 04:34:26;;;;;;;0.10;0.10;;;;;;;0.10;69.86;101145.06;7360758;19;20040;-57
